Stratford, New Jersey
Current Conditions -  °F | °C
As of 3:54 PM on Friday 31 Oct 2014 (Local Time) from KVAY Reporting Station
Overcast Overcast  
Wind Chill: 51°   Ceiling: 3000
Heat Index: 51°   Visibility: 10mi
Dew Point: 37°   Wind: 8mph
Humidity: 59%   Direction: 350°N
Pressure: 29.89"   Gusts: NA
Location:  39.83°N, 75.01°W
Report Text: KVAY 311954Z AUTO 35007KT 10SM OVC030 11/03 A2989 RMK AO2 SLP120 T01060028
Loading
Personal Weather Stations






























Interactive Weather Map
Tropical Storm Tracking
New forecast layout! Learn more

10-Day Weather Forecast

Advertisements
Track Severe Weather on mobile